Time;durP1;ratioP1;P1;durP2;ratioP2;P2;SDS_P1;SDS_P2;PMS_P1;PMS_P2;Temp;Humidity;BMP_temperature;BMP_pressure;BME280_temperature;BME280_humidity;BME280_pressure;Samples;Min_cycle;Max_cycle;Signal;HPM_P1;HPM_P2
2023/10/19 00:00:35;;;;;;;71.15;32.58;;;;;;;;;;6241765;28;20045;-52
2023/10/19 00:03:56;;;;;;;74.43;32.95;;;;;;;;;;6240740;28;20053;-53
2023/10/19 00:06:57;;;;;;;70.75;31.75;;;;;;;;;;6241505;28;20048;-50
2023/10/19 00:09:57;;;;;;;67.10;30.73;;;;;;;;;;6240908;28;20052;-54
2023/10/19 00:13:05;;;;;;;74.47;31.63;;;;;;;;;;6239922;28;20045;-52
2023/10/19 00:16:23;;;;;;;68.72;31.67;;;;;;;;;;6241323;28;20037;-54
2023/10/19 00:19:27;;;;;;;71.65;30.60;;;;;;;;;;6242369;28;20052;-53
2023/10/19 00:22:30;;;;;;;73.75;31.45;;;;;;;;;;6249381;28;20069;-51
2023/10/19 00:25:34;;;;;;;68.95;32.10;;;;;;;;;;6241035;28;20780;-51
2023/10/19 00:28:35;;;;;;;69.25;31.70;;;;;;;;;;6244164;28;20056;-55
2023/10/19 00:31:40;;;;;;;71.65;31.42;;;;;;;;;;6246512;28;20048;-54
2023/10/19 00:34:41;;;;;;;73.38;33.13;;;;;;;;;;6244657;28;20053;-51
2023/10/19 00:37:42;;;;;;;76.10;34.50;;;;;;;;;;6245786;28;20571;-55
2023/10/19 00:40:47;;;;;;;76.80;35.13;;;;;;;;;;6246021;28;20037;-52
2023/10/19 00:43:58;;;;;;;70.00;31.60;;;;;;;;;;6243877;28;20056;-61
2023/10/19 00:47:07;;;;;;;67.72;30.02;;;;;;;;;;6245900;28;20067;-58
2023/10/19 00:50:17;;;;;;;67.63;31.88;;;;;;;;;;6248043;28;20472;-55
2023/10/19 00:53:17;;;;;;;68.03;29.77;;;;;;;;;;6245829;28;20049;-56
2023/10/19 00:56:19;;;;;;;69.47;30.45;;;;;;;;;;6253751;28;20497;-52
2023/10/19 00:59:23;;;;;;;67.95;29.17;;;;;;;;;;6246677;28;20132;-54
2023/10/19 01:05:25;;;;;;;64.38;28.95;;;;;;;;;;6242531;28;20380;-53
2023/10/19 01:08:31;;;;;;;67.93;30.98;;;;;;;;;;6245016;28;20047;-54
2023/10/19 01:11:34;;;;;;;79.00;33.38;;;;;;;;;;6244174;28;20420;-55
2023/10/19 01:14:37;;;;;;;69.40;31.98;;;;;;;;;;6244101;28;20408;-51
2023/10/19 01:17:40;;;;;;;66.80;29.63;;;;;;;;;;6244555;28;20108;-52
2023/10/19 01:24:05;;;;;;;68.40;29.30;;;;;;;;;;6240549;28;20053;-57
2023/10/19 01:27:08;;;;;;;74.07;31.13;;;;;;;;;;6250065;28;20371;-60
2023/10/19 01:30:09;;;;;;;;;;;;;;;;;;6246551;28;20041;-61
2023/10/19 01:33:15;;;;;;;64.82;28.20;;;;;;;;;;6244871;28;19931;-61
2023/10/19 01:36:24;;;;;;;69.88;30.83;;;;;;;;;;6243739;28;20060;-59
2023/10/19 01:39:25;;;;;;;63.67;29.55;;;;;;;;;;6240373;28;20030;-58
2023/10/19 01:42:26;;;;;;;71.65;30.90;;;;;;;;;;6242156;28;20360;-54
2023/10/19 01:45:26;;;;;;;67.63;30.17;;;;;;;;;;6245741;28;20041;-60
2023/10/19 01:48:35;;;;;;;72.97;31.88;;;;;;;;;;6243888;28;20041;-51
2023/10/19 01:51:39;;;;;;;69.68;30.80;;;;;;;;;;6244012;28;20099;-51
2023/10/19 01:54:40;;;;;;;72.47;30.40;;;;;;;;;;6243342;28;20124;-52
2023/10/19 01:57:41;;;;;;;63.08;29.08;;;;;;;;;;6249600;28;20049;-50
2023/10/19 02:00:43;;;;;;;66.35;30.15;;;;;;;;;;6250599;28;20992;-53
2023/10/19 02:03:44;;;;;;;69.35;30.48;;;;;;;;;;6239927;28;20512;-52
2023/10/19 02:06:48;;;;;;;76.22;30.95;;;;;;;;;;6242659;28;20048;-54
2023/10/19 02:09:49;;;;;;;69.68;30.83;;;;;;;;;;6242252;28;20045;-55
2023/10/19 02:12:55;;;;;;;67.82;30.05;;;;;;;;;;6245015;28;20534;-51
2023/10/19 02:15:56;;;;;;;66.25;30.10;;;;;;;;;;6258593;28;20090;-53
2023/10/19 02:18:56;;;;;;;66.03;30.00;;;;;;;;;;6240688;28;20489;-51
2023/10/19 02:22:08;;;;;;;68.03;28.40;;;;;;;;;;6242225;28;20086;-51
2023/10/19 02:25:11;;;;;;;73.80;30.30;;;;;;;;;;6243681;28;20045;-50
2023/10/19 02:28:11;;;;;;;68.63;29.10;;;;;;;;;;6242515;28;20052;-50
2023/10/19 02:31:21;;;;;;;63.63;28.27;;;;;;;;;;6252922;28;20053;-61
2023/10/19 02:34:22;;;;;;;65.95;29.13;;;;;;;;;;6245171;28;20045;-52
2023/10/19 02:37:25;;;;;;;66.07;28.38;;;;;;;;;;6243191;28;20041;-61
2023/10/19 02:40:30;;;;;;;67.00;30.65;;;;;;;;;;6242089;28;20045;-58
2023/10/19 02:43:32;;;;;;;70.20;29.25;;;;;;;;;;6245422;28;20064;-57
2023/10/19 02:46:33;;;;;;;68.43;30.33;;;;;;;;;;6245957;28;20058;-60
2023/10/19 02:49:38;;;;;;;72.50;30.90;;;;;;;;;;6243325;28;20057;-62
2023/10/19 02:52:40;;;;;;;75.20;29.75;;;;;;;;;;6243296;28;20049;-51
2023/10/19 02:55:40;;;;;;;69.72;30.48;;;;;;;;;;6248853;28;20752;-50
2023/10/19 02:58:43;;;;;;;66.75;30.63;;;;;;;;;;6253546;28;20054;-51
2023/10/19 03:01:44;;;;;;;67.25;28.70;;;;;;;;;;6255195;28;20103;-61
2023/10/19 03:04:45;;;;;;;70.03;29.95;;;;;;;;;;6244352;28;20077;-54
2023/10/19 03:07:46;;;;;;;71.38;29.35;;;;;;;;;;6243558;28;20727;-59
2023/10/19 03:10:47;;;;;;;63.20;28.88;;;;;;;;;;6240693;28;20041;-58
2023/10/19 03:13:50;;;;;;;72.60;30.80;;;;;;;;;;6243864;28;20041;-58
2023/10/19 03:16:52;;;;;;;66.82;30.17;;;;;;;;;;6242093;28;20046;-55
2023/10/19 03:19:52;;;;;;;71.50;28.85;;;;;;;;;;6245094;28;20127;-61
2023/10/19 03:22:58;;;;;;;68.57;29.88;;;;;;;;;;6240050;28;20532;-52
2023/10/19 03:29:30;;;;;;;73.88;28.90;;;;;;;;;;6242294;28;20053;-53
2023/10/19 03:32:35;;;;;;;70.45;29.95;;;;;;;;;;6242670;28;20135;-55
2023/10/19 03:35:37;;;;;;;65.82;29.67;;;;;;;;;;6244938;28;20048;-61
2023/10/19 03:38:37;;;;;;;72.82;30.15;;;;;;;;;;6241285;28;20061;-61
2023/10/19 03:41:44;;;;;;;70.57;30.73;;;;;;;;;;6245741;28;20491;-61
2023/10/19 03:47:49;;;;;;;70.25;30.67;;;;;;;;;;6244810;28;20051;-61
2023/10/19 03:50:51;;;;;;;70.32;30.63;;;;;;;;;;6249238;28;20057;-60
2023/10/19 03:53:58;;;;;;;71.18;30.88;;;;;;;;;;6261502;28;20098;-60
2023/10/19 03:57:05;;;;;;;79.90;32.55;;;;;;;;;;6266594;28;20044;-61
2023/10/19 04:00:15;;;;;;;83.05;33.40;;;;;;;;;;6265462;28;20211;-61
2023/10/19 04:03:17;;;;;;;75.28;32.88;;;;;;;;;;6263536;28;20041;-62
2023/10/19 04:06:20;;;;;;;;;;;;;;;;;;6269593;28;20045;-62
2023/10/19 04:09:21;;;;;;;88.78;38.65;;;;;;;;;;6270680;28;19924;-61
2023/10/19 04:12:22;;;;;;;89.10;36.33;;;;;;;;;;6257045;28;20046;-51
2023/10/19 04:15:22;;;;;;;98.47;45.65;;;;;;;;;;6245978;28;20034;-62
2023/10/19 04:18:25;;;;;;;96.28;42.10;;;;;;;;;;6253145;28;20500;-58
2023/10/19 04:21:26;;;;;;;99.72;40.95;;;;;;;;;;6248245;28;20535;-61
2023/10/19 04:24:26;;;;;;;96.50;40.15;;;;;;;;;;6243671;28;20048;-62
2023/10/19 04:27:28;;;;;;;88.80;41.95;;;;;;;;;;6245536;28;20392;-60
2023/10/19 04:30:30;;;;;;;95.32;41.38;;;;;;;;;;6245552;28;20065;-61
2023/10/19 04:33:36;;;;;;;83.78;37.75;;;;;;;;;;6243990;28;20053;-62
2023/10/19 04:36:39;;;;;;;88.10;37.08;;;;;;;;;;6246563;28;20053;-58
2023/10/19 04:39:40;;;;;;;98.82;41.88;;;;;;;;;;6243062;28;20053;-60
2023/10/19 04:42:40;;;;;;;101.75;45.72;;;;;;;;;;6240437;28;20057;-59
2023/10/19 04:45:41;;;;;;;96.38;39.38;;;;;;;;;;6242285;28;20393;-61
2023/10/19 04:48:42;;;;;;;88.35;36.85;;;;;;;;;;6243866;28;20049;-62
2023/10/19 04:51:43;;;;;;;86.03;37.05;;;;;;;;;;6243331;28;20400;-58
2023/10/19 04:54:44;;;;;;;95.47;39.03;;;;;;;;;;6244947;28;20048;-61
2023/10/19 04:57:44;;;;;;;86.50;37.38;;;;;;;;;;6240775;28;20096;-61
2023/10/19 05:00:45;;;;;;;88.63;35.90;;;;;;;;;;6244205;28;20084;-60
2023/10/19 05:03:45;;;;;;;98.75;45.00;;;;;;;;;;6243071;28;20060;-62
2023/10/19 05:06:46;;;;;;;86.70;39.60;;;;;;;;;;6243944;28;20128;-62
2023/10/19 05:09:47;;;;;;;91.47;38.28;;;;;;;;;;6245592;28;20049;-53
2023/10/19 05:12:48;;;;;;;84.80;35.30;;;;;;;;;;6243335;28;20041;-60
2023/10/19 05:15:48;;;;;;;84.60;35.15;;;;;;;;;;6243014;28;20068;-60
2023/10/19 05:18:49;;;;;;;87.55;35.50;;;;;;;;;;6245698;28;20112;-59
2023/10/19 05:21:49;;;;;;;88.88;35.50;;;;;;;;;;6254177;28;20559;-61
2023/10/19 05:24:50;;;;;;;93.30;37.05;;;;;;;;;;6243666;28;20056;-61
2023/10/19 05:27:51;;;;;;;85.78;37.65;;;;;;;;;;6245031;28;20429;-61
2023/10/19 05:30:51;;;;;;;90.75;37.08;;;;;;;;;;6245199;28;20040;-61
2023/10/19 05:33:53;;;;;;;86.45;34.70;;;;;;;;;;6244939;28;20045;-61
2023/10/19 05:36:54;;;;;;;98.32;37.33;;;;;;;;;;6243046;28;20052;-60
2023/10/19 05:39:54;;;;;;;90.97;38.03;;;;;;;;;;6243617;28;20409;-61
2023/10/19 05:42:57;;;;;;;86.30;36.50;;;;;;;;;;6244567;28;20049;-61
2023/10/19 05:45:58;;;;;;;92.97;37.05;;;;;;;;;;6244271;28;20055;-56
2023/10/19 05:48:59;;;;;;;92.75;35.22;;;;;;;;;;6245528;28;20464;-61
2023/10/19 05:52:00;;;;;;;87.63;36.83;;;;;;;;;;6243986;28;20045;-58
2023/10/19 05:55:00;;;;;;;94.82;38.92;;;;;;;;;;6242256;28;20544;-61
2023/10/19 05:58:04;;;;;;;99.35;37.00;;;;;;;;;;6244261;28;20052;-60
2023/10/19 06:01:04;;;;;;;96.85;37.92;;;;;;;;;;6243450;28;20398;-62
2023/10/19 06:04:05;;;;;;;97.15;37.17;;;;;;;;;;6244229;28;20053;-60
2023/10/19 06:07:06;;;;;;;104.70;38.17;;;;;;;;;;6243588;28;20045;-61
2023/10/19 06:10:07;;;;;;;105.32;41.13;;;;;;;;;;6244312;28;20056;-60
2023/10/19 06:13:09;;;;;;;103.53;40.22;;;;;;;;;;6244532;28;20045;-60
2023/10/19 06:16:10;;;;;;;97.70;39.42;;;;;;;;;;6242209;28;20048;-62
2023/10/19 06:19:10;;;;;;;94.00;37.70;;;;;;;;;;6241629;28;20490;-60
2023/10/19 06:22:12;;;;;;;106.20;42.75;;;;;;;;;;6241913;28;20041;-61
2023/10/19 06:25:14;;;;;;;94.03;37.08;;;;;;;;;;6241736;28;20502;-62
2023/10/19 06:28:15;;;;;;;;;;;;;;;;;;6244406;28;20040;-61
2023/10/19 06:31:17;;;;;;;100.82;36.15;;;;;;;;;;6256708;28;20330;-61
2023/10/19 06:34:18;;;;;;;85.90;33.13;;;;;;;;;;6243916;28;20439;-62
2023/10/19 06:37:19;;;;;;;83.97;34.25;;;;;;;;;;6243760;28;20389;-60
2023/10/19 06:40:20;;;;;;;102.47;39.80;;;;;;;;;;6250519;28;20057;-60
2023/10/19 06:43:23;;;;;;;101.13;38.42;;;;;;;;;;6243243;28;20120;-61
2023/10/19 06:46:24;;;;;;;109.43;40.45;;;;;;;;;;6241943;28;20149;-61
2023/10/19 06:49:25;;;;;;;110.15;43.75;;;;;;;;;;6243520;28;20139;-61
2023/10/19 06:52:25;;;;;;;107.15;43.15;;;;;;;;;;6242553;28;20500;-57
2023/10/19 06:55:28;;;;;;;111.18;40.80;;;;;;;;;;6244107;28;20056;-62
2023/10/19 06:58:28;;;;;;;;;;;;;;;;;;6244833;28;20558;-61
2023/10/19 07:01:31;;;;;;;105.72;38.05;;;;;;;;;;6242705;28;20218;-60
2023/10/19 07:04:31;;;;;;;112.20;41.15;;;;;;;;;;6241608;28;20046;-60
2023/10/19 07:07:33;;;;;;;111.03;39.65;;;;;;;;;;6240004;28;20041;-57
2023/10/19 07:10:34;;;;;;;115.37;41.00;;;;;;;;;;6241426;28;20083;-62
2023/10/19 07:13:35;;;;;;;115.40;43.13;;;;;;;;;;6242293;28;20520;-59
2023/10/19 07:16:35;;;;;;;120.57;42.10;;;;;;;;;;6241681;28;20496;-60
2023/10/19 07:19:37;;;;;;;113.75;42.70;;;;;;;;;;6240951;28;20123;-55
2023/10/19 07:22:38;;;;;;;137.52;44.83;;;;;;;;;;6243076;28;20048;-59
2023/10/19 07:25:44;;;;;;;132.27;45.42;;;;;;;;;;6242268;28;20049;-58
2023/10/19 07:28:45;;;;;;;116.15;44.70;;;;;;;;;;6241733;28;20052;-62
2023/10/19 07:31:45;;;;;;;119.20;45.85;;;;;;;;;;6242287;28;20136;-58
2023/10/19 07:34:46;;;;;;;108.72;41.97;;;;;;;;;;6245898;28;20045;-63
2023/10/19 07:37:49;;;;;;;102.43;38.70;;;;;;;;;;6243707;28;20048;-62
2023/10/19 07:40:53;;;;;;;98.10;35.72;;;;;;;;;;6246631;28;20132;-61
2023/10/19 07:43:54;;;;;;;98.63;35.20;;;;;;;;;;6243456;28;20056;-62
2023/10/19 07:46:54;;;;;;;85.80;31.88;;;;;;;;;;6223757;28;20052;-61
2023/10/19 07:49:56;;;;;;;85.10;31.35;;;;;;;;;;6242045;28;20053;-62
2023/10/19 07:52:57;;;;;;;91.80;33.47;;;;;;;;;;6242261;28;20049;-58
2023/10/19 07:55:58;;;;;;;93.78;33.88;;;;;;;;;;6242563;28;20136;-63
2023/10/19 07:58:58;;;;;;;85.75;31.35;;;;;;;;;;6239128;28;20507;-58
2023/10/19 08:02:03;;;;;;;87.97;32.63;;;;;;;;;;6242413;28;20045;-58
2023/10/19 08:05:06;;;;;;;92.90;34.28;;;;;;;;;;6241267;28;20102;-55
2023/10/19 08:08:07;;;;;;;91.35;33.75;;;;;;;;;;6240383;28;20401;-62
2023/10/19 08:11:08;;;;;;;84.55;35.83;;;;;;;;;;6241390;28;20045;-61
2023/10/19 08:14:09;;;;;;;94.88;36.40;;;;;;;;;;6241163;28;20053;-56
2023/10/19 08:17:09;;;;;;;86.43;34.25;;;;;;;;;;6241222;28;20377;-62
2023/10/19 08:20:24;;;;;;;89.97;33.63;;;;;;;;;;6242009;28;20577;-61
2023/10/19 08:23:27;;;;;;;92.28;33.92;;;;;;;;;;6241914;28;20049;-62
2023/10/19 08:26:28;;;;;;;96.45;34.83;;;;;;;;;;6241831;28;20041;-63
2023/10/19 08:29:30;;;;;;;96.60;34.28;;;;;;;;;;6241051;28;20069;-59
2023/10/19 08:32:32;;;;;;;88.32;37.38;;;;;;;;;;6240913;28;20126;-58
2023/10/19 08:35:35;;;;;;;90.93;33.90;;;;;;;;;;6242606;28;20076;-61
2023/10/19 08:38:36;;;;;;;84.53;30.40;;;;;;;;;;6240173;28;20099;-61
2023/10/19 08:41:37;;;;;;;79.10;30.75;;;;;;;;;;6241981;28;20045;-59
2023/10/19 08:44:38;;;;;;;78.07;28.60;;;;;;;;;;6242546;28;20064;-60
2023/10/19 08:47:59;;;;;;;78.05;28.48;;;;;;;;;;6241685;28;20416;-57
2023/10/19 08:51:02;;;;;;;81.38;29.25;;;;;;;;;;6245385;28;20044;-61
2023/10/19 08:54:05;;;;;;;84.15;32.60;;;;;;;;;;6245750;28;20395;-62
2023/10/19 08:57:05;;;;;;;77.07;30.90;;;;;;;;;;6246191;28;20170;-58
2023/10/19 09:00:07;;;;;;;83.72;30.45;;;;;;;;;;6242773;28;20557;-62
2023/10/19 09:03:09;;;;;;;79.30;31.10;;;;;;;;;;6243934;28;20554;-59
2023/10/19 09:06:12;;;;;;;90.53;31.65;;;;;;;;;;6245678;28;20486;-59
2023/10/19 09:09:25;;;;;;;81.80;31.23;;;;;;;;;;6243993;28;20049;-56
2023/10/19 09:12:26;;;;;;;85.28;30.45;;;;;;;;;;6242137;28;20041;-62
2023/10/19 09:15:30;;;;;;;84.70;30.05;;;;;;;;;;6244867;28;20038;-61
2023/10/19 09:18:30;;;;;;;81.13;32.13;;;;;;;;;;6244001;28;20447;-61
2023/10/19 09:21:32;;;;;;;84.47;31.83;;;;;;;;;;6241559;28;20038;-61
2023/10/19 09:24:35;;;;;;;85.75;31.33;;;;;;;;;;6244440;28;20081;-60
2023/10/19 09:27:35;;;;;;;87.68;31.48;;;;;;;;;;6246166;28;20786;-57
2023/10/19 09:30:38;;;;;;;81.25;30.20;;;;;;;;;;6243085;28;20045;-60
2023/10/19 09:33:47;;;;;;;79.40;29.40;;;;;;;;;;6240083;28;20037;-55
2023/10/19 09:36:48;;;;;;;81.80;31.88;;;;;;;;;;6244290;28;20049;-55
2023/10/19 09:39:48;;;;;;;76.80;29.17;;;;;;;;;;6245598;28;20495;-60
2023/10/19 09:42:55;;;;;;;92.18;33.45;;;;;;;;;;6242444;28;20049;-57
2023/10/19 09:46:00;;;;;;;86.90;33.80;;;;;;;;;;6241774;28;20045;-61
2023/10/19 09:49:00;;;;;;;86.55;30.83;;;;;;;;;;6243251;28;20068;-60
2023/10/19 09:52:04;;;;;;;78.57;28.85;;;;;;;;;;6243576;28;20740;-56
2023/10/19 09:55:05;;;;;;;77.43;29.05;;;;;;;;;;6244251;28;20037;-63
2023/10/19 09:58:15;;;;;;;92.68;31.55;;;;;;;;;;6243316;28;20053;-59
2023/10/19 10:01:16;;;;;;;77.25;28.25;;;;;;;;;;6241948;28;20471;-62
2023/10/19 10:04:33;;;;;;;74.55;27.33;;;;;;;;;;6244147;28;20522;-62
2023/10/19 10:07:33;;;;;;;70.50;25.40;;;;;;;;;;6245238;28;20048;-61
2023/10/19 10:10:34;;;;;;;74.47;26.48;;;;;;;;;;6244157;28;20414;-62
2023/10/19 10:13:37;;;;;;;69.25;25.48;;;;;;;;;;6238220;28;20056;-61
2023/10/19 10:16:38;;;;;;;69.50;25.08;;;;;;;;;;6224712;28;20132;-61
2023/10/19 10:19:39;;;;;;;63.03;27.90;;;;;;;;;;6242916;28;20049;-61
2023/10/19 10:22:43;;;;;;;67.10;26.63;;;;;;;;;;6241262;28;20052;-62
2023/10/19 10:25:48;;;;;;;74.93;27.58;;;;;;;;;;6243557;28;20045;-57
2023/10/19 10:29:14;;;;;;;71.90;26.63;;;;;;;;;;6244015;28;20049;-60
2023/10/19 10:32:55;;;;;;;76.38;26.90;;;;;;;;;;6243473;28;20050;-61
2023/10/19 10:35:56;;;;;;;76.47;28.65;;;;;;;;;;6242630;28;20087;-62
2023/10/19 10:39:05;;;;;;;71.07;28.00;;;;;;;;;;6241343;28;20037;-60
2023/10/19 10:42:07;;;;;;;77.50;30.20;;;;;;;;;;6242174;28;20055;-61
2023/10/19 10:45:18;;;;;;;;;;;;;;;;;;6244242;28;20053;-57
2023/10/19 10:48:19;;;;;;;88.88;34.38;;;;;;;;;;6243439;28;19925;-59
2023/10/19 10:51:24;;;;;;;89.28;37.78;;;;;;;;;;6241937;28;20048;-58
2023/10/19 10:54:25;;;;;;;89.38;37.63;;;;;;;;;;6243094;28;20067;-63
2023/10/19 10:57:32;;;;;;;83.65;33.38;;;;;;;;;;6242276;28;20045;-62
2023/10/19 11:00:35;;;;;;;89.68;33.17;;;;;;;;;;6244152;28;20048;-61
2023/10/19 11:03:37;;;;;;;87.85;33.28;;;;;;;;;;6243141;28;20045;-61
2023/10/19 11:06:55;;;;;;;89.85;33.60;;;;;;;;;;6243245;28;20500;-62
2023/10/19 11:09:55;;;;;;;96.68;37.55;;;;;;;;;;6243282;28;20446;-62
2023/10/19 11:13:06;;;;;;;93.65;34.70;;;;;;;;;;6241764;28;20060;-61
2023/10/19 11:16:07;;;;;;;92.80;35.05;;;;;;;;;;6242961;28;20426;-60
2023/10/19 11:19:09;;;;;;;93.78;34.40;;;;;;;;;;6242775;28;20058;-63
2023/10/19 11:22:10;;;;;;;93.72;35.25;;;;;;;;;;6241511;28;20128;-58
2023/10/19 11:25:21;;;;;;;107.77;37.70;;;;;;;;;;6244773;28;20075;-58
2023/10/19 11:28:21;;;;;;;95.70;35.08;;;;;;;;;;6247706;28;20302;-56
2023/10/19 11:31:23;;;;;;;93.72;34.10;;;;;;;;;;6251088;28;20743;-56
2023/10/19 11:34:25;;;;;;;105.07;34.53;;;;;;;;;;6253186;28;20044;-55
2023/10/19 11:37:26;;;;;;;97.70;34.35;;;;;;;;;;6246801;28;20053;-57
2023/10/19 11:40:27;;;;;;;94.63;37.53;;;;;;;;;;6252918;28;20053;-53
2023/10/19 11:43:28;;;;;;;90.90;35.38;;;;;;;;;;6251987;28;20407;-53
2023/10/19 11:46:29;;;;;;;99.35;35.58;;;;;;;;;;6249486;28;20045;-53
2023/10/19 11:49:30;;;;;;;99.57;37.20;;;;;;;;;;6252298;28;20044;-55
2023/10/19 11:52:31;;;;;;;95.45;36.42;;;;;;;;;;6236164;28;20049;-56
2023/10/19 11:55:32;;;;;;;92.00;35.92;;;;;;;;;;6251627;28;20475;-56
2023/10/19 11:58:39;;;;;;;96.72;36.22;;;;;;;;;;6251135;28;20041;-59
2023/10/19 12:01:40;;;;;;;94.43;35.28;;;;;;;;;;6250706;28;20407;-62
2023/10/19 12:04:42;;;;;;;107.70;37.75;;;;;;;;;;6235169;28;20056;-61
2023/10/19 12:07:45;;;;;;;113.13;39.38;;;;;;;;;;6249948;28;20388;-61
2023/10/19 12:10:45;;;;;;;131.18;47.00;;;;;;;;;;6253150;28;20045;-60
2023/10/19 12:13:46;;;;;;;129.82;44.53;;;;;;;;;;6252846;28;20063;-61
2023/10/19 12:16:47;;;;;;;152.15;52.20;;;;;;;;;;6251203;28;20055;-60
2023/10/19 12:19:48;;;;;;;131.73;46.97;;;;;;;;;;6253913;28;20049;-61
2023/10/19 12:22:52;;;;;;;148.13;46.92;;;;;;;;;;6253495;28;20059;-62
2023/10/19 12:25:55;;;;;;;157.15;52.60;;;;;;;;;;6256161;28;20048;-61
2023/10/19 12:28:55;;;;;;;145.27;51.00;;;;;;;;;;6258974;28;20056;-61
2023/10/19 12:31:56;;;;;;;130.98;43.00;;;;;;;;;;6257200;28;20135;-61
2023/10/19 12:34:57;;;;;;;152.77;48.80;;;;;;;;;;6257971;28;20420;-61
2023/10/19 12:37:58;;;;;;;146.43;48.60;;;;;;;;;;6255741;28;20049;-61
2023/10/19 12:40:59;;;;;;;137.15;47.60;;;;;;;;;;6237382;28;20048;-59
2023/10/19 12:44:07;;;;;;;140.82;47.40;;;;;;;;;;6252392;28;20045;-60
2023/10/19 12:47:10;;;;;;;133.85;44.50;;;;;;;;;;6244956;28;20447;-60
2023/10/19 12:50:12;;;;;;;137.80;46.58;;;;;;;;;;6257701;28;20052;-61
2023/10/19 12:53:13;;;;;;;157.90;47.80;;;;;;;;;;6255932;28;20051;-60
2023/10/19 12:56:14;;;;;;;169.37;53.63;;;;;;;;;;6254983;28;20037;-59
2023/10/19 12:59:17;;;;;;;140.38;47.90;;;;;;;;;;6256879;28;20055;-60
2023/10/19 13:02:20;;;;;;;264.00;77.25;;;;;;;;;;6254345;28;20053;-60
2023/10/19 13:05:20;;;;;;;185.90;55.63;;;;;;;;;;6255596;28;20144;-57
2023/10/19 13:08:21;;;;;;;147.52;53.20;;;;;;;;;;6256007;28;20673;-59
2023/10/19 13:11:22;;;;;;;146.10;49.83;;;;;;;;;;6257031;28;20049;-57
2023/10/19 13:14:22;;;;;;;151.15;54.58;;;;;;;;;;6256303;28;20048;-60
2023/10/19 13:17:24;;;;;;;166.02;58.08;;;;;;;;;;6254433;28;20076;-59
2023/10/19 13:20:25;;;;;;;163.23;59.17;;;;;;;;;;6256881;28;20048;-60
2023/10/19 13:23:26;;;;;;;167.93;58.72;;;;;;;;;;6252836;28;20118;-61
2023/10/19 13:26:27;;;;;;;138.77;52.22;;;;;;;;;;6253342;28;20433;-59
2023/10/19 13:29:28;;;;;;;131.85;48.92;;;;;;;;;;6255961;28;20090;-62
2023/10/19 13:32:31;;;;;;;132.30;58.70;;;;;;;;;;6253721;28;20224;-61
2023/10/19 13:35:31;;;;;;;114.57;43.42;;;;;;;;;;6255250;28;20053;-59
2023/10/19 13:38:32;;;;;;;112.47;45.08;;;;;;;;;;6254206;28;20048;-60
2023/10/19 13:41:33;;;;;;;113.70;47.92;;;;;;;;;;6257418;28;20068;-59
2023/10/19 13:44:33;;;;;;;101.45;46.03;;;;;;;;;;6254629;28;20144;-61
2023/10/19 13:47:34;;;;;;;105.40;43.90;;;;;;;;;;6252989;28;20553;-59
2023/10/19 13:50:35;;;;;;;104.00;43.58;;;;;;;;;;6254928;28;20567;-60
2023/10/19 13:53:35;;;;;;;110.57;45.58;;;;;;;;;;6253506;28;20095;-60
2023/10/19 13:56:36;;;;;;;109.50;47.13;;;;;;;;;;6252272;28;20073;-62
2023/10/19 13:59:36;;;;;;;121.88;49.53;;;;;;;;;;6255216;28;20052;-62
2023/10/19 14:02:38;;;;;;;117.72;53.95;;;;;;;;;;6253759;28;20063;-62
2023/10/19 14:05:47;;;;;;;107.40;48.08;;;;;;;;;;6254983;28;20044;-59
2023/10/19 14:08:48;;;;;;;104.90;47.92;;;;;;;;;;6253145;28;20070;-58
2023/10/19 14:11:49;;;;;;;119.22;49.70;;;;;;;;;;6255211;28;20444;-61
2023/10/19 14:14:49;;;;;;;98.22;42.47;;;;;;;;;;6234535;28;20052;-60
2023/10/19 14:17:50;;;;;;;93.53;41.03;;;;;;;;;;6253577;28;20427;-60
2023/10/19 14:20:51;;;;;;;84.05;40.30;;;;;;;;;;6254392;28;20080;-61
2023/10/19 14:23:51;;;;;;;84.38;40.85;;;;;;;;;;6238206;28;20503;-61
2023/10/19 14:26:54;;;;;;;92.20;42.85;;;;;;;;;;6253438;28;20053;-59
2023/10/19 14:29:54;;;;;;;235.15;112.03;;;;;;;;;;6256121;28;20048;-60
2023/10/19 14:32:55;;;;;;;128.57;61.15;;;;;;;;;;6242156;28;20087;-58
2023/10/19 14:35:55;;;;;;;82.38;40.22;;;;;;;;;;6253370;28;20048;-57
2023/10/19 14:38:56;;;;;;;96.50;46.53;;;;;;;;;;6255094;28;20518;-60
2023/10/19 14:41:57;;;;;;;81.07;41.33;;;;;;;;;;6252550;28;20049;-61
2023/10/19 14:44:58;;;;;;;75.53;38.95;;;;;;;;;;6253262;28;20053;-57
2023/10/19 14:47:59;;;;;;;73.07;35.30;;;;;;;;;;6252738;28;20059;-60
2023/10/19 14:51:01;;;;;;;68.53;36.10;;;;;;;;;;6254079;28;20047;-57
2023/10/19 14:54:02;;;;;;;67.28;34.60;;;;;;;;;;6250714;28;20135;-59
2023/10/19 14:57:03;;;;;;;71.05;34.95;;;;;;;;;;6253125;28;20056;-61
2023/10/19 15:03:28;;;;;;;70.88;35.15;;;;;;;;;;6249220;28;20041;-60
2023/10/19 15:06:31;;;;;;;64.83;33.23;;;;;;;;;;6248219;28;20354;-62
2023/10/19 15:09:31;;;;;;;66.70;32.78;;;;;;;;;;6253905;28;20048;-62
2023/10/19 15:12:32;;;;;;;59.65;30.40;;;;;;;;;;6255265;28;20048;-60
2023/10/19 15:15:33;;;;;;;60.88;32.00;;;;;;;;;;6250083;28;20155;-60
2023/10/19 15:18:36;;;;;;;61.50;30.65;;;;;;;;;;6252607;28;20045;-61
2023/10/19 15:21:36;;;;;;;59.63;31.30;;;;;;;;;;6253459;28;20045;-60
2023/10/19 15:24:37;;;;;;;62.30;34.15;;;;;;;;;;6254602;28;20480;-60
2023/10/19 15:27:42;;;;;;;72.80;39.85;;;;;;;;;;6251983;28;20456;-60
2023/10/19 15:30:42;;;;;;;91.35;46.10;;;;;;;;;;6253494;28;20099;-60
2023/10/19 15:33:43;;;;;;;73.35;38.92;;;;;;;;;;6252592;28;20494;-62
2023/10/19 15:36:44;;;;;;;58.33;30.67;;;;;;;;;;6250175;28;20084;-60
2023/10/19 15:39:44;;;;;;;58.05;31.70;;;;;;;;;;6252660;28;20060;-59
2023/10/19 15:42:46;;;;;;;62.95;32.60;;;;;;;;;;6252757;28;20158;-59
2023/10/19 15:45:49;;;;;;;62.05;32.70;;;;;;;;;;6250834;28;20055;-58
2023/10/19 15:48:49;;;;;;;63.33;33.30;;;;;;;;;;6254738;28;20540;-57
2023/10/19 15:51:51;;;;;;;62.55;31.90;;;;;;;;;;6254550;28;20052;-59
2023/10/19 15:54:52;;;;;;;60.08;30.55;;;;;;;;;;6252669;28;20384;-60
2023/10/19 15:57:54;;;;;;;56.60;30.27;;;;;;;;;;6252910;28;20047;-61
2023/10/19 16:00:54;;;;;;;60.45;31.60;;;;;;;;;;6257278;28;20053;-60
2023/10/19 16:03:55;;;;;;;60.83;32.38;;;;;;;;;;6257605;28;20056;-59
2023/10/19 16:06:56;;;;;;;66.93;33.47;;;;;;;;;;6256686;28;20049;-61
2023/10/19 16:09:57;;;;;;;69.00;36.00;;;;;;;;;;6258446;28;20561;-58
2023/10/19 16:12:57;;;;;;;75.75;38.22;;;;;;;;;;6259565;28;20060;-61
2023/10/19 16:16:02;;;;;;;71.25;36.83;;;;;;;;;;6254665;28;20136;-59
2023/10/19 16:19:02;;;;;;;76.97;39.33;;;;;;;;;;6258903;28;20415;-60
2023/10/19 16:22:03;;;;;;;83.40;45.10;;;;;;;;;;6258377;28;20049;-56
2023/10/19 16:25:06;;;;;;;81.80;39.72;;;;;;;;;;6257614;28;20094;-60
2023/10/19 16:28:07;;;;;;;70.35;36.47;;;;;;;;;;6256077;28;20526;-60
2023/10/19 16:31:11;;;;;;;72.83;37.03;;;;;;;;;;6254310;28;20044;-59
2023/10/19 16:34:13;;;;;;;79.05;39.42;;;;;;;;;;6255074;28;20045;-60
2023/10/19 16:37:14;;;;;;;79.00;39.20;;;;;;;;;;6254647;28;20463;-60
2023/10/19 16:40:15;;;;;;;65.03;34.35;;;;;;;;;;6257598;28;20523;-59
2023/10/19 16:43:15;;;;;;;73.63;36.05;;;;;;;;;;6257880;28;20061;-60
2023/10/19 16:46:16;;;;;;;71.75;33.70;;;;;;;;;;6254343;28;20099;-53
2023/10/19 16:49:18;;;;;;;71.00;36.10;;;;;;;;;;6255336;28;20045;-60
2023/10/19 16:52:18;;;;;;;;;;;;;;;;;;6258922;28;20049;-59
2023/10/19 16:55:19;;;;;;;63.65;31.38;;;;;;;;;;6258627;28;19955;-61
2023/10/19 16:58:20;;;;;;;63.88;31.80;;;;;;;;;;6253209;28;20048;-59
2023/10/19 17:01:20;;;;;;;74.70;34.28;;;;;;;;;;6254980;28;20045;-59
2023/10/19 17:04:21;;;;;;;100.88;45.20;;;;;;;;;;6235651;28;20052;-60
2023/10/19 17:07:22;;;;;;;101.80;46.20;;;;;;;;;;6253897;28;20125;-60
2023/10/19 17:10:23;;;;;;;107.40;50.33;;;;;;;;;;6255278;28;20474;-60
2023/10/19 17:13:23;;;;;;;87.68;43.03;;;;;;;;;;6256200;28;20053;-60
2023/10/19 17:16:24;;;;;;;84.30;41.28;;;;;;;;;;6253938;28;20124;-60
2023/10/19 17:19:25;;;;;;;95.13;45.03;;;;;;;;;;6254319;28;20049;-58
2023/10/19 17:22:26;;;;;;;93.33;44.03;;;;;;;;;;6257421;28;20053;-59
2023/10/19 17:25:29;;;;;;;91.55;44.75;;;;;;;;;;6257406;28;20525;-58
2023/10/19 17:28:30;;;;;;;80.05;41.25;;;;;;;;;;6254925;28;20049;-59
2023/10/19 17:31:30;;;;;;;80.38;37.78;;;;;;;;;;6255014;28;20122;-62
2023/10/19 17:34:36;;;;;;;77.57;36.60;;;;;;;;;;6252228;28;20037;-60
2023/10/19 17:37:37;;;;;;;78.07;37.63;;;;;;;;;;6253148;28;20574;-60
2023/10/19 17:40:38;;;;;;;88.00;41.38;;;;;;;;;;6254013;28;20067;-60
2023/10/19 17:43:39;;;;;;;87.22;41.28;;;;;;;;;;6254251;28;20059;-60
2023/10/19 17:46:41;;;;;;;91.57;43.87;;;;;;;;;;6252399;28;20441;-58
2023/10/19 17:49:41;;;;;;;96.35;45.20;;;;;;;;;;6256838;28;20144;-58
2023/10/19 17:52:43;;;;;;;104.03;47.13;;;;;;;;;;6256337;28;20052;-59
2023/10/19 17:55:43;;;;;;;100.32;47.20;;;;;;;;;;6256343;28;20136;-59